sensor_id;sensor_type;location;lat;lon;timestamp;temperature;humidity
37530;DHT22;23374;52.758;6.872;2022-11-20T00:00:44;-0.60;1.00
37530;DHT22;23374;52.758;6.872;2022-11-20T00:03:04;-0.60;99.90
37530;DHT22;23374;52.758;6.872;2022-11-20T00:05:25;-0.50;99.90
37530;DHT22;23374;52.758;6.872;2022-11-20T00:07:46;-0.50;1.00
37530;DHT22;23374;52.758;6.872;2022-11-20T00:10:07;-0.40;1.00
37530;DHT22;23374;52.758;6.872;2022-11-20T00:12:28;-0.40;1.00
37530;DHT22;23374;52.758;6.872;2022-11-20T00:14:50;-0.30;1.00
37530;DHT22;23374;52.758;6.872;2022-11-20T00:17:11;-0.30;1.00
37530;DHT22;23374;52.758;6.872;2022-11-20T00:19:32;-0.30;99.90
37530;DHT22;23374;52.758;6.872;2022-11-20T00:21:52;-0.30;99.90
37530;DHT22;23374;52.758;6.872;2022-11-20T00:24:14;-0.20;99.90
37530;DHT22;23374;52.758;6.872;2022-11-20T00:26:35;-0.20;99.90
37530;DHT22;23374;52.758;6.872;2022-11-20T00:31:30;-0.20;99.90
37530;DHT22;23374;52.758;6.872;2022-11-20T00:33:53;-0.10;1.00
37530;DHT22;23374;52.758;6.872;2022-11-20T00:36:17;-0.10;1.00
37530;DHT22;23374;52.758;6.872;2022-11-20T00:38:38;-0.10;1.00
37530;DHT22;23374;52.758;6.872;2022-11-20T00:41:01;-0.10;99.90
37530;DHT22;23374;52.758;6.872;2022-11-20T00:43:22;-0.10;99.90
37530;DHT22;23374;52.758;6.872;2022-11-20T00:45:42;-0.20;1.00
37530;DHT22;23374;52.758;6.872;2022-11-20T00:48:03;-0.20;1.00
37530;DHT22;23374;52.758;6.872;2022-11-20T00:50:23;-0.20;1.00
37530;DHT22;23374;52.758;6.872;2022-11-20T00:52:43;-0.30;99.90
37530;DHT22;23374;52.758;6.872;2022-11-20T00:55:06;-0.30;72.70
37530;DHT22;23374;52.758;6.872;2022-11-20T00:57:26;-0.20;99.90
37530;DHT22;23374;52.758;6.872;2022-11-20T00:59:47;-0.20;99.90
37530;DHT22;23374;52.758;6.872;2022-11-20T01:02:07;-0.20;99.90
37530;DHT22;23374;52.758;6.872;2022-11-20T01:04:27;-0.30;99.90
37530;DHT22;23374;52.758;6.872;2022-11-20T01:06:47;-0.30;99.90
37530;DHT22;23374;52.758;6.872;2022-11-20T01:09:13;-0.30;99.90
37530;DHT22;23374;52.758;6.872;2022-11-20T01:11:38;-0.20;99.90
37530;DHT22;23374;52.758;6.872;2022-11-20T01:14:00;-0.20;1.00
37530;DHT22;23374;52.758;6.872;2022-11-20T01:16:30;-0.10;99.90
37530;DHT22;23374;52.758;6.872;2022-11-20T01:18:54;-0.20;99.90
37530;DHT22;23374;52.758;6.872;2022-11-20T01:21:23;-0.10;1.00
37530;DHT22;23374;52.758;6.872;2022-11-20T01:23:45;0.00;1.00
37530;DHT22;23374;52.758;6.872;2022-11-20T01:26:12;0.00;1.00
37530;DHT22;23374;52.758;6.872;2022-11-20T01:28:33;0.10;1.00
37530;DHT22;23374;52.758;6.872;2022-11-20T01:30:57;0.10;1.00
37530;DHT22;23374;52.758;6.872;2022-11-20T01:33:17;0.20;1.00
37530;DHT22;23374;52.758;6.872;2022-11-20T01:35:38;0.20;1.00
37530;DHT22;23374;52.758;6.872;2022-11-20T01:37:58;0.20;99.90
37530;DHT22;23374;52.758;6.872;2022-11-20T01:40:18;0.10;99.90
37530;DHT22;23374;52.758;6.872;2022-11-20T01:42:46;0.00;99.90
37530;DHT22;23374;52.758;6.872;2022-11-20T01:47:38;0.00;99.90
37530;DHT22;23374;52.758;6.872;2022-11-20T01:50:43;0.00;1.00
37530;DHT22;23374;52.758;6.872;2022-11-20T01:53:09;0.00;1.00
37530;DHT22;23374;52.758;6.872;2022-11-20T01:55:36;0.10;1.00
37530;DHT22;23374;52.758;6.872;2022-11-20T01:57:58;0.10;1.00
37530;DHT22;23374;52.758;6.872;2022-11-20T02:00:20;0.10;1.00
37530;DHT22;23374;52.758;6.872;2022-11-20T02:02:46;0.20;1.00
37530;DHT22;23374;52.758;6.872;2022-11-20T02:08:06;0.30;1.00
37530;DHT22;23374;52.758;6.872;2022-11-20T02:10:28;0.30;99.90
37530;DHT22;23374;52.758;6.872;2022-11-20T02:12:48;0.30;1.00
37530;DHT22;23374;52.758;6.872;2022-11-20T02:15:28;0.30;1.00
37530;DHT22;23374;52.758;6.872;2022-11-20T02:17:48;0.30;1.00
37530;DHT22;23374;52.758;6.872;2022-11-20T02:20:09;0.30;1.00
37530;DHT22;23374;52.758;6.872;2022-11-20T02:22:38;0.30;99.90
37530;DHT22;23374;52.758;6.872;2022-11-20T02:25:02;0.40;99.90
37530;DHT22;23374;52.758;6.872;2022-11-20T02:27:23;0.40;1.00
37530;DHT22;23374;52.758;6.872;2022-11-20T02:29:57;0.40;1.00
37530;DHT22;23374;52.758;6.872;2022-11-20T02:32:27;0.40;1.00
37530;DHT22;23374;52.758;6.872;2022-11-20T02:34:48;0.40;99.90
37530;DHT22;23374;52.758;6.872;2022-11-20T02:37:08;0.40;99.90
37530;DHT22;23374;52.758;6.872;2022-11-20T02:39:30;0.40;99.90
37530;DHT22;23374;52.758;6.872;2022-11-20T02:41:52;0.40;99.90
37530;DHT22;23374;52.758;6.872;2022-11-20T02:44:13;0.40;1.00
37530;DHT22;23374;52.758;6.872;2022-11-20T02:46:34;0.40;99.90
37530;DHT22;23374;52.758;6.872;2022-11-20T02:48:54;0.40;99.90
37530;DHT22;23374;52.758;6.872;2022-11-20T02:51:14;0.40;99.90
37530;DHT22;23374;52.758;6.872;2022-11-20T02:53:35;0.50;99.90
37530;DHT22;23374;52.758;6.872;2022-11-20T02:55:56;0.40;99.90
37530;DHT22;23374;52.758;6.872;2022-11-20T02:58:16;0.40;99.90
37530;DHT22;23374;52.758;6.872;2022-11-20T03:00:37;0.40;99.90
37530;DHT22;23374;52.758;6.872;2022-11-20T03:02:57;0.30;99.90
37530;DHT22;23374;52.758;6.872;2022-11-20T03:05:18;0.30;1.00
37530;DHT22;23374;52.758;6.872;2022-11-20T03:07:38;0.30;1.00
37530;DHT22;23374;52.758;6.872;2022-11-20T03:09:58;0.40;1.00
37530;DHT22;23374;52.758;6.872;2022-11-20T03:12:19;0.30;1.00
37530;DHT22;23374;52.758;6.872;2022-11-20T03:14:39;0.30;1.00
37530;DHT22;23374;52.758;6.872;2022-11-20T03:16:59;0.30;1.00
37530;DHT22;23374;52.758;6.872;2022-11-20T03:19:19;0.30;1.00
37530;DHT22;23374;52.758;6.872;2022-11-20T03:21:41;0.30;99.90
37530;DHT22;23374;52.758;6.872;2022-11-20T03:24:03;0.30;99.90
37530;DHT22;23374;52.758;6.872;2022-11-20T03:26:25;0.30;1.00
37530;DHT22;23374;52.758;6.872;2022-11-20T03:28:58;0.30;1.00
37530;DHT22;23374;52.758;6.872;2022-11-20T03:31:22;0.30;1.00
37530;DHT22;23374;52.758;6.872;2022-11-20T03:33:43;0.30;1.00
37530;DHT22;23374;52.758;6.872;2022-11-20T03:36:06;0.40;1.00
37530;DHT22;23374;52.758;6.872;2022-11-20T03:38:30;0.40;1.00
37530;DHT22;23374;52.758;6.872;2022-11-20T03:40:51;0.40;1.00
37530;DHT22;23374;52.758;6.872;2022-11-20T03:43:17;0.50;1.00
37530;DHT22;23374;52.758;6.872;2022-11-20T03:45:37;0.50;1.00
37530;DHT22;23374;52.758;6.872;2022-11-20T03:47:57;0.50;1.00
37530;DHT22;23374;52.758;6.872;2022-11-20T03:50:17;0.60;1.00
37530;DHT22;23374;52.758;6.872;2022-11-20T03:52:38;0.70;1.00
37530;DHT22;23374;52.758;6.872;2022-11-20T03:54:58;0.70;1.00
37530;DHT22;23374;52.758;6.872;2022-11-20T03:57:18;0.70;1.00
37530;DHT22;23374;52.758;6.872;2022-11-20T03:59:38;0.70;99.90
37530;DHT22;23374;52.758;6.872;2022-11-20T04:01:59;0.70;99.90
37530;DHT22;23374;52.758;6.872;2022-11-20T04:04:19;0.70;99.90
37530;DHT22;23374;52.758;6.872;2022-11-20T04:06:39;0.70;1.00
37530;DHT22;23374;52.758;6.872;2022-11-20T04:08:59;0.70;1.00
37530;DHT22;23374;52.758;6.872;2022-11-20T04:11:39;0.80;99.90
37530;DHT22;23374;52.758;6.872;2022-11-20T04:14:06;0.70;99.90
37530;DHT22;23374;52.758;6.872;2022-11-20T04:16:29;0.70;1.00
37530;DHT22;23374;52.758;6.872;2022-11-20T04:18:55;0.70;1.00
37530;DHT22;23374;52.758;6.872;2022-11-20T04:21:16;0.80;99.90
37530;DHT22;23374;52.758;6.872;2022-11-20T04:23:36;0.80;99.90
37530;DHT22;23374;52.758;6.872;2022-11-20T04:26:10;0.80;99.90
37530;DHT22;23374;52.758;6.872;2022-11-20T04:28:30;0.80;99.90
37530;DHT22;23374;52.758;6.872;2022-11-20T04:30:51;0.80;99.90
37530;DHT22;23374;52.758;6.872;2022-11-20T04:33:11;0.90;99.90
37530;DHT22;23374;52.758;6.872;2022-11-20T04:35:35;0.90;99.90
37530;DHT22;23374;52.758;6.872;2022-11-20T04:37:55;0.80;99.90
37530;DHT22;23374;52.758;6.872;2022-11-20T04:40:15;0.80;99.90
37530;DHT22;23374;52.758;6.872;2022-11-20T04:42:36;0.90;99.90
37530;DHT22;23374;52.758;6.872;2022-11-20T04:44:57;0.90;99.90
37530;DHT22;23374;52.758;6.872;2022-11-20T04:47:17;0.80;99.90
37530;DHT22;23374;52.758;6.872;2022-11-20T04:49:37;0.80;99.90
37530;DHT22;23374;52.758;6.872;2022-11-20T04:51:58;0.80;99.90
37530;DHT22;23374;52.758;6.872;2022-11-20T04:54:18;0.80;99.90
37530;DHT22;23374;52.758;6.872;2022-11-20T04:56:40;0.80;99.90
37530;DHT22;23374;52.758;6.872;2022-11-20T04:59:02;0.90;99.90
37530;DHT22;23374;52.758;6.872;2022-11-20T05:01:23;0.90;99.90
37530;DHT22;23374;52.758;6.872;2022-11-20T05:03:44;0.90;99.90
37530;DHT22;23374;52.758;6.872;2022-11-20T05:06:06;0.90;99.90
37530;DHT22;23374;52.758;6.872;2022-11-20T05:08:27;0.90;99.90
37530;DHT22;23374;52.758;6.872;2022-11-20T05:10:48;0.90;99.90
37530;DHT22;23374;52.758;6.872;2022-11-20T05:13:08;0.80;99.90
37530;DHT22;23374;52.758;6.872;2022-11-20T05:15:28;0.90;99.90
37530;DHT22;23374;52.758;6.872;2022-11-20T05:17:52;0.90;93.40
37530;DHT22;23374;52.758;6.872;2022-11-20T05:20:13;0.90;99.90
37530;DHT22;23374;52.758;6.872;2022-11-20T05:22:34;0.90;99.90
37530;DHT22;23374;52.758;6.872;2022-11-20T05:24:54;0.80;7.90
37530;DHT22;23374;52.758;6.872;2022-11-20T05:27:14;0.80;21.80
37530;DHT22;23374;52.758;6.872;2022-11-20T05:29:34;0.80;1.00
37530;DHT22;23374;52.758;6.872;2022-11-20T05:31:55;0.70;1.00
37530;DHT22;23374;52.758;6.872;2022-11-20T05:34:15;0.60;10.00
37530;DHT22;23374;52.758;6.872;2022-11-20T05:36:36;0.60;47.50
37530;DHT22;23374;52.758;6.872;2022-11-20T05:38:56;0.60;99.90
37530;DHT22;23374;52.758;6.872;2022-11-20T05:41:19;0.60;99.90
37530;DHT22;23374;52.758;6.872;2022-11-20T05:43:41;0.70;99.90
37530;DHT22;23374;52.758;6.872;2022-11-20T05:46:03;0.70;1.00
37530;DHT22;23374;52.758;6.872;2022-11-20T05:48:24;0.70;99.90
37530;DHT22;23374;52.758;6.872;2022-11-20T05:50:44;0.70;1.00
37530;DHT22;23374;52.758;6.872;2022-11-20T05:53:05;0.70;1.00
37530;DHT22;23374;52.758;6.872;2022-11-20T05:55:26;0.80;1.00
37530;DHT22;23374;52.758;6.872;2022-11-20T05:57:47;0.80;1.00
37530;DHT22;23374;52.758;6.872;2022-11-20T06:00:08;0.80;1.00
37530;DHT22;23374;52.758;6.872;2022-11-20T06:02:29;0.70;99.90
37530;DHT22;23374;52.758;6.872;2022-11-20T06:04:49;0.70;1.00
37530;DHT22;23374;52.758;6.872;2022-11-20T06:07:09;0.70;1.00
37530;DHT22;23374;52.758;6.872;2022-11-20T06:09:30;0.70;1.00
37530;DHT22;23374;52.758;6.872;2022-11-20T06:11:50;0.80;1.00
37530;DHT22;23374;52.758;6.872;2022-11-20T06:14:10;0.80;1.00
37530;DHT22;23374;52.758;6.872;2022-11-20T06:16:31;0.80;1.00
37530;DHT22;23374;52.758;6.872;2022-11-20T06:18:51;0.80;1.00
37530;DHT22;23374;52.758;6.872;2022-11-20T06:21:20;0.80;1.00
37530;DHT22;23374;52.758;6.872;2022-11-20T06:23:41;0.80;1.00
37530;DHT22;23374;52.758;6.872;2022-11-20T06:26:17;0.90;1.00
37530;DHT22;23374;52.758;6.872;2022-11-20T06:28:38;0.90;99.90
37530;DHT22;23374;52.758;6.872;2022-11-20T06:31:00;0.90;99.90
37530;DHT22;23374;52.758;6.872;2022-11-20T06:33:20;0.90;99.90
37530;DHT22;23374;52.758;6.872;2022-11-20T06:35:40;0.90;99.90
37530;DHT22;23374;52.758;6.872;2022-11-20T06:38:00;0.90;99.90
37530;DHT22;23374;52.758;6.872;2022-11-20T06:40:20;1.00;99.90
37530;DHT22;23374;52.758;6.872;2022-11-20T06:42:40;0.90;99.90
37530;DHT22;23374;52.758;6.872;2022-11-20T06:45:01;0.90;1.00
37530;DHT22;23374;52.758;6.872;2022-11-20T06:47:22;0.80;94.70
37530;DHT22;23374;52.758;6.872;2022-11-20T06:49:42;0.80;30.20
37530;DHT22;23374;52.758;6.872;2022-11-20T06:52:03;0.80;94.10
37530;DHT22;23374;52.758;6.872;2022-11-20T06:54:23;0.80;1.00
37530;DHT22;23374;52.758;6.872;2022-11-20T06:56:47;0.80;99.90
37530;DHT22;23374;52.758;6.872;2022-11-20T06:59:09;0.90;99.90
37530;DHT22;23374;52.758;6.872;2022-11-20T07:01:29;0.90;99.90
37530;DHT22;23374;52.758;6.872;2022-11-20T07:03:50;0.80;99.90
37530;DHT22;23374;52.758;6.872;2022-11-20T07:06:11;0.80;1.00
37530;DHT22;23374;52.758;6.872;2022-11-20T07:08:33;0.70;1.00
37530;DHT22;23374;52.758;6.872;2022-11-20T07:11:00;0.70;1.00
37530;DHT22;23374;52.758;6.872;2022-11-20T07:13:20;0.70;99.90
37530;DHT22;23374;52.758;6.872;2022-11-20T07:15:41;0.70;1.00
37530;DHT22;23374;52.758;6.872;2022-11-20T07:18:01;0.70;1.00
37530;DHT22;23374;52.758;6.872;2022-11-20T07:20:22;0.80;1.00
37530;DHT22;23374;52.758;6.872;2022-11-20T07:22:42;0.80;1.00
37530;DHT22;23374;52.758;6.872;2022-11-20T07:25:04;0.80;1.00
37530;DHT22;23374;52.758;6.872;2022-11-20T07:27:24;0.80;1.00
37530;DHT22;23374;52.758;6.872;2022-11-20T07:29:44;0.90;99.90
37530;DHT22;23374;52.758;6.872;2022-11-20T07:32:05;0.90;1.00
37530;DHT22;23374;52.758;6.872;2022-11-20T07:34:25;1.00;1.00
37530;DHT22;23374;52.758;6.872;2022-11-20T07:36:45;1.00;99.90
37530;DHT22;23374;52.758;6.872;2022-11-20T07:39:05;0.90;99.90
37530;DHT22;23374;52.758;6.872;2022-11-20T07:41:26;1.00;1.00
37530;DHT22;23374;52.758;6.872;2022-11-20T07:43:47;1.00;99.90
37530;DHT22;23374;52.758;6.872;2022-11-20T07:46:07;1.00;99.90
37530;DHT22;23374;52.758;6.872;2022-11-20T07:48:28;1.00;45.10
37530;DHT22;23374;52.758;6.872;2022-11-20T07:50:48;1.00;99.90
37530;DHT22;23374;52.758;6.872;2022-11-20T07:53:08;1.00;99.90
37530;DHT22;23374;52.758;6.872;2022-11-20T07:55:29;1.00;1.00
37530;DHT22;23374;52.758;6.872;2022-11-20T07:57:55;1.00;99.90
37530;DHT22;23374;52.758;6.872;2022-11-20T08:00:17;1.00;99.90
37530;DHT22;23374;52.758;6.872;2022-11-20T08:02:41;1.00;99.90
37530;DHT22;23374;52.758;6.872;2022-11-20T08:05:02;1.10;1.00
37530;DHT22;23374;52.758;6.872;2022-11-20T08:07:22;1.00;1.00
37530;DHT22;23374;52.758;6.872;2022-11-20T08:09:42;1.00;1.00
37530;DHT22;23374;52.758;6.872;2022-11-20T08:12:03;1.00;1.00
37530;DHT22;23374;52.758;6.872;2022-11-20T08:14:42;1.00;1.00
37530;DHT22;23374;52.758;6.872;2022-11-20T08:17:03;1.00;1.00
37530;DHT22;23374;52.758;6.872;2022-11-20T08:19:23;1.10;99.90
37530;DHT22;23374;52.758;6.872;2022-11-20T08:21:43;1.10;1.00
37530;DHT22;23374;52.758;6.872;2022-11-20T08:24:05;1.10;1.00
37530;DHT22;23374;52.758;6.872;2022-11-20T08:26:26;1.00;1.00
37530;DHT22;23374;52.758;6.872;2022-11-20T08:28:46;0.90;1.00
37530;DHT22;23374;52.758;6.872;2022-11-20T08:31:07;0.80;1.00
37530;DHT22;23374;52.758;6.872;2022-11-20T08:33:28;0.80;1.00
37530;DHT22;23374;52.758;6.872;2022-11-20T08:35:49;0.80;99.90
37530;DHT22;23374;52.758;6.872;2022-11-20T08:38:09;0.80;99.90
37530;DHT22;23374;52.758;6.872;2022-11-20T08:40:30;0.80;99.90
37530;DHT22;23374;52.758;6.872;2022-11-20T08:42:51;0.80;99.90
37530;DHT22;23374;52.758;6.872;2022-11-20T08:45:12;0.90;99.90
37530;DHT22;23374;52.758;6.872;2022-11-20T08:47:32;1.00;99.90
37530;DHT22;23374;52.758;6.872;2022-11-20T08:49:52;1.00;99.90
37530;DHT22;23374;52.758;6.872;2022-11-20T08:52:12;1.10;99.90
37530;DHT22;23374;52.758;6.872;2022-11-20T08:54:33;1.10;99.90
37530;DHT22;23374;52.758;6.872;2022-11-20T08:56:53;1.10;99.90
37530;DHT22;23374;52.758;6.872;2022-11-20T08:59:14;1.10;99.90
37530;DHT22;23374;52.758;6.872;2022-11-20T09:01:34;1.10;99.90
37530;DHT22;23374;52.758;6.872;2022-11-20T09:03:58;1.10;99.90
37530;DHT22;23374;52.758;6.872;2022-11-20T09:06:19;1.10;1.00
37530;DHT22;23374;52.758;6.872;2022-11-20T09:08:40;1.20;1.00
37530;DHT22;23374;52.758;6.872;2022-11-20T09:11:01;1.20;1.00
37530;DHT22;23374;52.758;6.872;2022-11-20T09:13:23;1.20;52.40
37530;DHT22;23374;52.758;6.872;2022-11-20T09:15:44;1.20;99.90
37530;DHT22;23374;52.758;6.872;2022-11-20T09:18:04;1.30;99.90
37530;DHT22;23374;52.758;6.872;2022-11-20T09:20:26;1.30;1.00
37530;DHT22;23374;52.758;6.872;2022-11-20T09:22:47;1.40;1.00
37530;DHT22;23374;52.758;6.872;2022-11-20T09:25:08;1.40;1.00
37530;DHT22;23374;52.758;6.872;2022-11-20T09:27:28;1.50;1.00
37530;DHT22;23374;52.758;6.872;2022-11-20T09:29:49;1.60;1.00
37530;DHT22;23374;52.758;6.872;2022-11-20T09:32:09;1.60;1.00
37530;DHT22;23374;52.758;6.872;2022-11-20T09:34:30;1.70;1.00
37530;DHT22;23374;52.758;6.872;2022-11-20T09:36:52;1.70;1.00
37530;DHT22;23374;52.758;6.872;2022-11-20T09:39:13;1.80;1.00
37530;DHT22;23374;52.758;6.872;2022-11-20T09:47:37;1.80;1.00
37530;DHT22;23374;52.758;6.872;2022-11-20T09:51:35;1.90;1.00
37530;DHT22;23374;52.758;6.872;2022-11-20T09:55:21;1.90;1.00
37530;DHT22;23374;52.758;6.872;2022-11-20T09:57:46;1.90;99.90
37530;DHT22;23374;52.758;6.872;2022-11-20T10:00:12;1.90;1.00
37530;DHT22;23374;52.758;6.872;2022-11-20T10:02:55;1.90;99.90
37530;DHT22;23374;52.758;6.872;2022-11-20T10:05:36;2.00;33.20
37530;DHT22;23374;52.758;6.872;2022-11-20T10:09:54;2.10;1.00
37530;DHT22;23374;52.758;6.872;2022-11-20T10:14:09;2.10;1.00
37530;DHT22;23374;52.758;6.872;2022-11-20T10:23:12;2.10;99.90
37530;DHT22;23374;52.758;6.872;2022-11-20T10:31:36;2.10;56.40
37530;DHT22;23374;52.758;6.872;2022-11-20T10:34:01;2.20;1.00
37530;DHT22;23374;52.758;6.872;2022-11-20T10:36:37;2.30;90.00
37530;DHT22;23374;52.758;6.872;2022-11-20T10:39:06;2.30;1.00
37530;DHT22;23374;52.758;6.872;2022-11-20T10:41:32;2.40;99.90
37530;DHT22;23374;52.758;6.872;2022-11-20T10:44:05;2.40;99.90
37530;DHT22;23374;52.758;6.872;2022-11-20T10:46:42;2.40;99.90
37530;DHT22;23374;52.758;6.872;2022-11-20T10:49:10;2.50;1.00
37530;DHT22;23374;52.758;6.872;2022-11-20T10:51:50;2.50;1.00
37530;DHT22;23374;52.758;6.872;2022-11-20T10:56:53;2.60;1.00
37530;DHT22;23374;52.758;6.872;2022-11-20T11:00:03;2.60;1.00
37530;DHT22;23374;52.758;6.872;2022-11-20T11:02:50;2.60;1.00
37530;DHT22;23374;52.758;6.872;2022-11-20T11:05:42;2.60;1.00
37530;DHT22;23374;52.758;6.872;2022-11-20T11:08:14;2.50;1.00
37530;DHT22;23374;52.758;6.872;2022-11-20T11:12:09;2.50;1.00
37530;DHT22;23374;52.758;6.872;2022-11-20T11:14:46;2.60;44.30
37530;DHT22;23374;52.758;6.872;2022-11-20T11:17:29;2.60;1.00
37530;DHT22;23374;52.758;6.872;2022-11-20T11:20:18;2.60;1.00
37530;DHT22;23374;52.758;6.872;2022-11-20T11:22:54;2.60;1.00
37530;DHT22;23374;52.758;6.872;2022-11-20T11:25:37;2.70;99.90
37530;DHT22;23374;52.758;6.872;2022-11-20T11:28:20;2.70;1.00
37530;DHT22;23374;52.758;6.872;2022-11-20T11:30:43;2.70;96.70
37530;DHT22;23374;52.758;6.872;2022-11-20T11:33:09;2.70;99.90
37530;DHT22;23374;52.758;6.872;2022-11-20T11:35:30;2.70;99.90
37530;DHT22;23374;52.758;6.872;2022-11-20T11:37:52;2.80;1.00
37530;DHT22;23374;52.758;6.872;2022-11-20T11:40:14;2.80;99.90
37530;DHT22;23374;52.758;6.872;2022-11-20T11:42:55;2.90;41.00
37530;DHT22;23374;52.758;6.872;2022-11-20T11:45:16;2.90;1.00
37530;DHT22;23374;52.758;6.872;2022-11-20T11:47:50;2.90;99.90
37530;DHT22;23374;52.758;6.872;2022-11-20T11:50:21;2.90;1.00
37530;DHT22;23374;52.758;6.872;2022-11-20T11:53:14;2.90;99.90
37530;DHT22;23374;52.758;6.872;2022-11-20T11:59:40;3.00;1.00
37530;DHT22;23374;52.758;6.872;2022-11-20T12:02:09;3.00;1.00
37530;DHT22;23374;52.758;6.872;2022-11-20T12:04:57;3.00;1.00
37530;DHT22;23374;52.758;6.872;2022-11-20T12:07:51;3.00;1.00
37530;DHT22;23374;52.758;6.872;2022-11-20T12:10:47;3.10;1.00
37530;DHT22;23374;52.758;6.872;2022-11-20T12:14:17;3.10;1.00
37530;DHT22;23374;52.758;6.872;2022-11-20T12:16:42;3.20;99.90
37530;DHT22;23374;52.758;6.872;2022-11-20T12:19:08;3.30;99.90
37530;DHT22;23374;52.758;6.872;2022-11-20T12:21:59;3.30;1.00
37530;DHT22;23374;52.758;6.872;2022-11-20T12:25:55;3.30;99.90
37530;DHT22;23374;52.758;6.872;2022-11-20T12:36:59;3.40;99.90
37530;DHT22;23374;52.758;6.872;2022-11-20T12:39:33;3.40;99.90
37530;DHT22;23374;52.758;6.872;2022-11-20T12:42:24;3.40;1.00
37530;DHT22;23374;52.758;6.872;2022-11-20T12:51:40;3.30;99.90
37530;DHT22;23374;52.758;6.872;2022-11-20T12:58:34;3.30;1.00
37530;DHT22;23374;52.758;6.872;2022-11-20T13:06:21;3.20;35.70
37530;DHT22;23374;52.758;6.872;2022-11-20T13:08:52;3.20;1.00
37530;DHT22;23374;52.758;6.872;2022-11-20T13:19:17;3.30;99.90
37530;DHT22;23374;52.758;6.872;2022-11-20T13:21:42;3.20;99.90
37530;DHT22;23374;52.758;6.872;2022-11-20T13:24:30;3.20;99.90
37530;DHT22;23374;52.758;6.872;2022-11-20T13:27:22;3.20;99.90
37530;DHT22;23374;52.758;6.872;2022-11-20T13:30:31;3.20;1.00
37530;DHT22;23374;52.758;6.872;2022-11-20T13:33:32;3.20;1.00
37530;DHT22;23374;52.758;6.872;2022-11-20T13:36:03;3.10;27.30
37530;DHT22;23374;52.758;6.872;2022-11-20T13:38:23;3.00;1.00
37530;DHT22;23374;52.758;6.872;2022-11-20T13:41:08;3.00;1.00
37530;DHT22;23374;52.758;6.872;2022-11-20T13:43:52;2.90;1.00
37530;DHT22;23374;52.758;6.872;2022-11-20T13:46:12;2.90;1.00
37530;DHT22;23374;52.758;6.872;2022-11-20T13:48:42;3.00;1.00
37530;DHT22;23374;52.758;6.872;2022-11-20T13:51:51;3.00;99.90
37530;DHT22;23374;52.758;6.872;2022-11-20T14:05:59;2.80;1.00
37530;DHT22;23374;52.758;6.872;2022-11-20T14:08:46;2.70;1.00
37530;DHT22;23374;52.758;6.872;2022-11-20T14:11:24;2.70;1.00
37530;DHT22;23374;52.758;6.872;2022-11-20T14:14:19;2.60;99.90
37530;DHT22;23374;52.758;6.872;2022-11-20T14:16:39;2.60;99.90
37530;DHT22;23374;52.758;6.872;2022-11-20T14:19:27;2.60;1.00
37530;DHT22;23374;52.758;6.872;2022-11-20T14:25:03;2.50;1.00
37530;DHT22;23374;52.758;6.872;2022-11-20T14:27:24;2.50;1.00
37530;DHT22;23374;52.758;6.872;2022-11-20T14:29:47;2.50;1.00
37530;DHT22;23374;52.758;6.872;2022-11-20T14:32:09;2.50;36.80
37530;DHT22;23374;52.758;6.872;2022-11-20T14:34:35;2.50;1.00
37530;DHT22;23374;52.758;6.872;2022-11-20T14:37:03;2.50;1.00
37530;DHT22;23374;52.758;6.872;2022-11-20T14:39:41;2.50;99.90
37530;DHT22;23374;52.758;6.872;2022-11-20T14:42:17;2.40;99.90
37530;DHT22;23374;52.758;6.872;2022-11-20T14:44:42;2.50;1.00
37530;DHT22;23374;52.758;6.872;2022-11-20T14:47:03;2.50;1.00
37530;DHT22;23374;52.758;6.872;2022-11-20T14:49:25;2.40;1.00
37530;DHT22;23374;52.758;6.872;2022-11-20T14:52:09;2.40;99.90
37530;DHT22;23374;52.758;6.872;2022-11-20T14:54:30;2.40;1.00
37530;DHT22;23374;52.758;6.872;2022-11-20T14:57:18;2.30;1.00
37530;DHT22;23374;52.758;6.872;2022-11-20T14:59:39;2.30;54.50
37530;DHT22;23374;52.758;6.872;2022-11-20T15:02:10;2.30;99.90
37530;DHT22;23374;52.758;6.872;2022-11-20T15:04:31;2.40;99.90
37530;DHT22;23374;52.758;6.872;2022-11-20T15:06:54;2.30;99.90
37530;DHT22;23374;52.758;6.872;2022-11-20T15:09:15;2.30;1.00
37530;DHT22;23374;52.758;6.872;2022-11-20T15:11:58;2.30;1.00
37530;DHT22;23374;52.758;6.872;2022-11-20T15:14:22;2.30;1.00
37530;DHT22;23374;52.758;6.872;2022-11-20T15:16:43;2.30;1.00
37530;DHT22;23374;52.758;6.872;2022-11-20T15:19:17;2.30;21.60
37530;DHT22;23374;52.758;6.872;2022-11-20T15:21:38;2.30;99.90
37530;DHT22;23374;52.758;6.872;2022-11-20T15:23:58;2.20;99.90
37530;DHT22;23374;52.758;6.872;2022-11-20T15:26:25;2.30;27.80
37530;DHT22;23374;52.758;6.872;2022-11-20T15:28:48;2.30;99.90
37530;DHT22;23374;52.758;6.872;2022-11-20T15:31:18;2.30;99.90
37530;DHT22;23374;52.758;6.872;2022-11-20T15:33:41;2.30;1.00
37530;DHT22;23374;52.758;6.872;2022-11-20T15:36:01;2.30;1.00
37530;DHT22;23374;52.758;6.872;2022-11-20T15:38:22;2.30;1.00
37530;DHT22;23374;52.758;6.872;2022-11-20T15:40:46;2.30;1.00
37530;DHT22;23374;52.758;6.872;2022-11-20T15:43:06;2.30;1.00
37530;DHT22;23374;52.758;6.872;2022-11-20T15:45:31;2.40;99.90
37530;DHT22;23374;52.758;6.872;2022-11-20T15:47:53;2.40;99.90
37530;DHT22;23374;52.758;6.872;2022-11-20T15:50:17;2.30;1.00
37530;DHT22;23374;52.758;6.872;2022-11-20T15:52:37;2.30;99.90
37530;DHT22;23374;52.758;6.872;2022-11-20T15:54:57;2.20;1.00
37530;DHT22;23374;52.758;6.872;2022-11-20T15:57:18;2.20;1.00
37530;DHT22;23374;52.758;6.872;2022-11-20T15:59:39;2.20;1.00
37530;DHT22;23374;52.758;6.872;2022-11-20T16:02:01;2.20;1.00
37530;DHT22;23374;52.758;6.872;2022-11-20T16:04:22;2.20;99.90
37530;DHT22;23374;52.758;6.872;2022-11-20T16:06:42;2.20;99.90
37530;DHT22;23374;52.758;6.872;2022-11-20T16:09:06;2.20;99.90
37530;DHT22;23374;52.758;6.872;2022-11-20T16:11:27;2.20;1.00
37530;DHT22;23374;52.758;6.872;2022-11-20T16:13:47;2.10;58.10
37530;DHT22;23374;52.758;6.872;2022-11-20T16:16:36;2.10;1.00
37530;DHT22;23374;52.758;6.872;2022-11-20T16:18:57;2.10;1.00
37530;DHT22;23374;52.758;6.872;2022-11-20T16:21:18;2.10;99.90
37530;DHT22;23374;52.758;6.872;2022-11-20T16:23:40;2.10;1.00
37530;DHT22;23374;52.758;6.872;2022-11-20T16:26:10;2.10;1.00
37530;DHT22;23374;52.758;6.872;2022-11-20T16:28:30;2.10;75.70
37530;DHT22;23374;52.758;6.872;2022-11-20T16:30:50;2.10;99.90
37530;DHT22;23374;52.758;6.872;2022-11-20T16:33:14;2.00;1.00
37530;DHT22;23374;52.758;6.872;2022-11-20T16:35:35;2.00;99.90
37530;DHT22;23374;52.758;6.872;2022-11-20T16:37:56;2.00;1.00
37530;DHT22;23374;52.758;6.872;2022-11-20T16:40:20;2.00;99.90
37530;DHT22;23374;52.758;6.872;2022-11-20T16:42:40;2.00;1.00
37530;DHT22;23374;52.758;6.872;2022-11-20T16:45:01;2.00;99.90
37530;DHT22;23374;52.758;6.872;2022-11-20T16:47:23;2.00;1.00
37530;DHT22;23374;52.758;6.872;2022-11-20T16:49:43;2.00;99.90
37530;DHT22;23374;52.758;6.872;2022-11-20T16:52:06;1.90;99.90
37530;DHT22;23374;52.758;6.872;2022-11-20T16:54:26;1.90;1.00
37530;DHT22;23374;52.758;6.872;2022-11-20T16:56:49;1.90;1.00
37530;DHT22;23374;52.758;6.872;2022-11-20T16:59:12;1.90;1.00
37530;DHT22;23374;52.758;6.872;2022-11-20T17:01:33;2.00;99.90
37530;DHT22;23374;52.758;6.872;2022-11-20T17:04:04;1.90;1.00
37530;DHT22;23374;52.758;6.872;2022-11-20T17:06:29;1.90;99.90
37530;DHT22;23374;52.758;6.872;2022-11-20T17:08:50;1.90;1.00